Time,TemperatureF,DewpointF,PressureIn,WindDirection,WindDirectionDegrees,WindSpeedMPH,WindSpeedGustMPH,Humidity,HourlyPrecipIn,Conditions,Clouds,dailyrainin,SoftwareType,DateUTC
2013-05-16 00:02:00,58.0,38.0,-100.00,NNE,30,2.0,3.0,49,-99.99,,,-99.99,,2013-05-16 05:02:00,
2013-05-16 00:12:00,58.0,38.0,-100.00,NNE,30,2.0,3.0,49,-99.99,,,-99.99,,2013-05-16 05:12:00,
2013-05-16 00:22:00,58.0,38.0,-100.00,NNE,30,2.0,3.0,49,-99.99,,,-99.99,,2013-05-16 05:22:00,
2013-05-16 00:32:00,58.0,38.0,-100.00,NNE,30,2.0,3.0,49,-99.99,,,-99.99,,2013-05-16 05:32:00,
2013-05-16 01:01:00,54.0,40.0,-100.00,SE,140,2.0,4.0,59,-99.99,,,-99.99,,2013-05-16 06:01:00,
2013-05-16 01:12:00,54.0,40.0,-100.00,SE,140,2.0,4.0,59,-99.99,,,-99.99,,2013-05-16 06:12:00,
2013-05-16 01:22:00,54.0,40.0,-100.00,SE,140,2.0,4.0,59,-99.99,,,-99.99,,2013-05-16 06:22:00,
2013-05-16 01:33:00,54.0,40.0,-100.00,SE,140,2.0,4.0,59,-99.99,,,-99.99,,2013-05-16 06:33:00,
2013-05-16 02:02:00,51.0,42.0,-100.00,ENE,70,2.0,4.0,70,-99.99,,,-99.99,,2013-05-16 07:02:00,
2013-05-16 02:12:00,51.0,42.0,-100.00,ENE,70,2.0,4.0,70,-99.99,,,-99.99,,2013-05-16 07:12:00,
2013-05-16 02:24:00,51.0,42.0,-100.00,ENE,70,2.0,4.0,70,-99.99,,,-99.99,,2013-05-16 07:24:00,
2013-05-16 02:34:00,51.0,42.0,-100.00,ENE,70,2.0,4.0,70,-99.99,,,-99.99,,2013-05-16 07:34:00,
2013-05-16 03:03:00,50.0,41.0,-100.00,ENE,65,3.0,3.0,72,-99.99,,,-99.99,,2013-05-16 08:03:00,
2013-05-16 03:13:00,50.0,41.0,-100.00,ENE,65,3.0,3.0,72,-99.99,,,-99.99,,2013-05-16 08:13:00,
2013-05-16 03:24:00,50.0,41.0,-100.00,ENE,65,3.0,3.0,72,-99.99,,,-99.99,,2013-05-16 08:24:00,
2013-05-16 03:34:00,50.0,41.0,-100.00,ENE,65,3.0,3.0,72,-99.99,,,-99.99,,2013-05-16 08:34:00,
2013-05-16 03:35:00,47.0,40.0,-100.00,NNE,20,0.0,2.0,77,-99.99,,,-99.99,,2013-05-16 08:35:00,
2013-05-16 04:04:00,47.0,40.0,-100.00,NNE,20,0.0,2.0,77,-99.99,,,-99.99,,2013-05-16 09:04:00,
2013-05-16 04:14:00,47.0,40.0,-100.00,NNE,20,0.0,2.0,77,-99.99,,,-99.99,,2013-05-16 09:14:00,
2013-05-16 04:24:00,47.0,40.0,-100.00,NNE,20,0.0,2.0,77,-99.99,,,-99.99,,2013-05-16 09:24:00,
2013-05-16 04:35:00,45.0,41.0,-100.00,NNE,20,0.0,0.0,86,-99.99,,,-99.99,,2013-05-16 09:35:00,
2013-05-16 05:05:00,45.0,41.0,-100.00,NNE,20,0.0,0.0,86,-99.99,,,-99.99,,2013-05-16 10:05:00,
2013-05-16 05:15:00,45.0,41.0,-100.00,NNE,20,0.0,0.0,86,-99.99,,,-99.99,,2013-05-16 10:15:00,
2013-05-16 05:24:00,45.0,41.0,-100.00,NNE,20,0.0,0.0,86,-99.99,,,-99.99,,2013-05-16 10:24:00,
2013-05-16 06:05:00,43.0,41.0,-100.00,NE,35,0.0,0.0,91,-99.99,,,-99.99,,2013-05-16 11:05:00,
2013-05-16 06:14:00,43.0,41.0,-100.00,NE,35,0.0,0.0,91,-99.99,,,-99.99,,2013-05-16 11:14:00,
2013-05-16 06:25:00,43.0,41.0,-100.00,NE,35,0.0,0.0,91,-99.99,,,-99.99,,2013-05-16 11:25:00,
2013-05-16 06:35:00,43.0,41.0,-100.00,NE,35,0.0,0.0,91,-99.99,,,-99.99,,2013-05-16 11:35:00,
2013-05-16 07:06:00,47.0,43.0,-100.00,ENE,60,2.0,4.0,86,-99.99,,,-99.99,,2013-05-16 12:06:00,
2013-05-16 07:13:00,47.0,43.0,-100.00,ENE,60,2.0,4.0,86,-99.99,,,-99.99,,2013-05-16 12:13:00,
2013-05-16 07:23:00,47.0,43.0,-100.00,ENE,60,2.0,4.0,86,-99.99,,,-99.99,,2013-05-16 12:23:00,
2013-05-16 07:35:00,47.0,43.0,-100.00,ENE,60,2.0,4.0,86,-99.99,,,-99.99,,2013-05-16 12:35:00,
2013-05-16 08:04:00,60.0,42.0,-100.00,NNE,20,3.0,6.0,52,-99.99,,,-99.99,,2013-05-16 13:04:00,
2013-05-16 08:12:00,60.0,42.0,-100.00,NNE,20,3.0,6.0,52,-99.99,,,-99.99,,2013-05-16 13:12:00,
2013-05-16 08:26:00,60.0,42.0,-100.00,NNE,20,3.0,6.0,52,-99.99,,,-99.99,,2013-05-16 13:26:00,
2013-05-16 08:35:00,60.0,42.0,-100.00,NNE,20,3.0,6.0,52,-99.99,,,-99.99,,2013-05-16 13:35:00,
2013-05-16 09:05:00,65.0,39.0,-100.00,East,80,8.0,14.0,39,-99.99,,,-99.99,,2013-05-16 14:05:00,
2013-05-16 09:16:00,65.0,39.0,-100.00,East,80,8.0,14.0,39,-99.99,,,-99.99,,2013-05-16 14:16:00,
2013-05-16 09:23:00,65.0,39.0,-100.00,East,80,8.0,14.0,39,-99.99,,,-99.99,,2013-05-16 14:23:00,
2013-05-16 09:37:00,65.0,39.0,-100.00,East,80,8.0,14.0,39,-99.99,,,-99.99,,2013-05-16 14:37:00,
2013-05-16 10:36:00,73.0,-99.9,-100.00,NE,50,4.0,11.0,26,-99.99,,,-99.99,,2013-05-16 15:36:00,
2013-05-16 11:09:00,73.0,36.0,-100.00,NE,50,4.0,11.0,26,-99.99,,,-99.99,,2013-05-16 16:09:00,
2013-05-16 11:20:00,73.0,36.0,-100.00,NE,50,4.0,11.0,26,-99.99,,,-99.99,,2013-05-16 16:20:00,
2013-05-16 11:30:00,73.0,36.0,-100.00,NE,50,4.0,11.0,26,-99.99,,,-99.99,,2013-05-16 16:30:00,
2013-05-16 11:38:00,75.0,31.0,-100.00,NNE,15,0.0,0.0,20,-99.99,,,-99.99,,2013-05-16 16:38:00,
2013-05-16 12:10:00,75.0,31.0,-100.00,NNE,15,0.0,0.0,20,-99.99,,,-99.99,,2013-05-16 17:10:00,
2013-05-16 12:20:00,75.0,31.0,-100.00,NNE,15,0.0,0.0,20,-99.99,,,-99.99,,2013-05-16 17:20:00,
2013-05-16 12:31:00,75.0,31.0,-100.00,NNE,15,0.0,0.0,20,-99.99,,,-99.99,,2013-05-16 17:31:00,
2013-05-16 12:36:00,-999.0,-99.9,-100.00,ENE,70,0.0,0.0,19,-99.99,,,-99.99,,2013-05-16 17:36:00,
2013-05-16 13:10:00,75.0,30.0,-100.00,ENE,70,0.0,0.0,19,-99.99,,,-99.99,,2013-05-16 18:10:00,
2013-05-16 13:20:00,75.0,30.0,-100.00,ENE,70,0.0,0.0,19,-99.99,,,-99.99,,2013-05-16 18:20:00,
2013-05-16 13:30:00,-999.0,-99.9,-100.00,ENE,70,0.0,0.0,19,-99.99,,,-99.99,,2013-05-16 18:30:00,
2013-05-16 14:00:00,-999.0,-99.9,-100.00,East,85,0.0,0.0,17,-99.99,,,-99.99,,2013-05-16 19:00:00,
2013-05-16 14:10:00,78.0,30.0,-100.00,East,85,0.0,0.0,17,-99.99,,,-99.99,,2013-05-16 19:10:00,
2013-05-16 14:20:00,78.0,30.0,-100.00,East,85,0.0,0.0,17,-99.99,,,-99.99,,2013-05-16 19:20:00,
2013-05-16 14:31:00,-999.0,-99.9,-100.00,East,90,7.0,14.0,15,-99.99,,,-99.99,,2013-05-16 19:31:00,
2013-05-16 15:01:00,-999.0,-99.9,-100.00,East,90,7.0,14.0,15,-99.99,,,-99.99,,2013-05-16 20:01:00,
2013-05-16 15:10:00,-999.0,-99.9,-100.00,East,90,7.0,14.0,15,-99.99,,,-99.99,,2013-05-16 20:10:00,
2013-05-16 15:20:00,77.0,-99.9,-100.00,East,90,7.0,14.0,15,-99.99,,,-99.99,,2013-05-16 20:20:00,
2013-05-16 15:30:00,77.0,-99.9,-100.00,East,90,7.0,14.0,15,-99.99,,,-99.99,,2013-05-16 20:30:00,
2013-05-16 16:31:00,79.0,26.0,-100.00,NE,35,4.0,11.0,14,-99.99,,,-99.99,,2013-05-16 21:31:00,
2013-05-16 17:00:00,-999.0,-99.9,-100.00,NE,35,4.0,11.0,14,-99.99,,,-99.99,,2013-05-16 22:00:00,
2013-05-16 17:08:00,79.0,26.0,-100.00,NE,35,4.0,11.0,14,-99.99,,,-99.99,,2013-05-16 22:08:00,
2013-05-16 17:21:00,79.0,26.0,-100.00,NE,35,4.0,11.0,14,-99.99,,,-99.99,,2013-05-16 22:21:00,
2013-05-16 17:30:00,79.0,26.0,-100.00,NE,35,4.0,11.0,14,-99.99,,,-99.99,,2013-05-16 22:30:00,
2013-05-16 17:31:00,78.0,26.0,-100.00,ENE,70,7.0,14.0,15,-99.99,,,-99.99,,2013-05-16 22:31:00,
2013-05-16 18:01:00,78.0,26.0,-100.00,ENE,70,7.0,14.0,15,-99.99,,,-99.99,,2013-05-16 23:01:00,
2013-05-16 18:06:00,78.0,26.0,-100.00,ENE,70,7.0,14.0,15,-99.99,,,-99.99,,2013-05-16 23:06:00,
2013-05-16 18:16:00,78.0,26.0,-100.00,ENE,70,7.0,14.0,15,-99.99,,,-99.99,,2013-05-16 23:16:00,
2013-05-16 18:24:00,78.0,26.0,-100.00,ENE,70,7.0,14.0,15,-99.99,,,-99.99,,2013-05-16 23:24:00,
2013-05-16 20:30:00,69.0,24.0,-100.00,ENE,65,9.0,16.0,18,-99.99,,,-99.99,,2013-05-17 01:30:00,
2013-05-16 20:52:00,69.0,24.0,-100.00,ENE,65,9.0,16.0,18,-99.99,,,-99.99,,2013-05-17 01:52:00,
2013-05-16 21:02:00,69.0,24.0,-100.00,ENE,65,9.0,16.0,18,-99.99,,,-99.99,,2013-05-17 02:02:00,
2013-05-16 21:11:00,69.0,24.0,-100.00,ENE,65,9.0,16.0,18,-99.99,,,-99.99,,2013-05-17 02:11:00,
2013-05-16 21:22:00,69.0,24.0,-100.00,ENE,65,9.0,16.0,18,-99.99,,,-99.99,,2013-05-17 02:22:00,
2013-05-16 22:32:00,65.0,20.0,-100.00,ENE,70,8.0,13.0,18,-99.99,,,-99.99,,2013-05-17 03:32:00,
2013-05-16 22:53:00,65.0,20.0,-100.00,ENE,70,8.0,13.0,18,-99.99,,,-99.99,,2013-05-17 03:53:00,
2013-05-16 23:02:00,65.0,20.0,-100.00,ENE,70,8.0,13.0,18,-99.99,,,-99.99,,2013-05-17 04:02:00,
2013-05-16 23:13:00,65.0,20.0,-100.00,ENE,70,8.0,13.0,18,-99.99,,,-99.99,,2013-05-17 04:13:00,
2013-05-16 23:23:00,65.0,20.0,-100.00,ENE,70,8.0,13.0,18,-99.99,,,-99.99,,2013-05-17 04:23:00,
2013-05-16 23:32:00,64.0,21.0,-100.00,ENE,70,9.0,15.0,19,-99.99,,,-99.99,,2013-05-17 04:32:00,
2013-05-16 23:53:00,64.0,21.0,-100.00,ENE,70,9.0,15.0,19,-99.99,,,-99.99,,2013-05-17 04:53:00,